Time;durP1;ratioP1;P1;durP2;ratioP2;P2;SDS_P1;SDS_P2;PMS_P1;PMS_P2;Temp;Humidity;BMP_temperature;BMP_pressure;BME280_temperature;BME280_humidity;BME280_pressure;Samples;Min_cycle;Max_cycle;Signal;HPM_P1;HPM_P2
2022/04/28 00:00:20;;;;;;;8.63;6.50;;;12.90;98.60;;;;;;5087540;28;20218;-67
2022/04/28 00:02:47;;;;;;;7.63;6.63;;;12.80;98.70;;;;;;5087379;28;20318;-67
2022/04/28 00:05:14;;;;;;;7.27;6.60;;;12.80;98.90;;;;;;5087077;28;20210;-67
2022/04/28 00:07:41;;;;;;;7.03;6.40;;;12.70;98.90;;;;;;5090613;28;20207;-68
2022/04/28 00:10:10;;;;;;;6.77;6.17;;;12.70;99.10;;;;;;5090411;28;20210;-67
2022/04/28 00:12:38;;;;;;;7.97;6.17;;;12.70;99.10;;;;;;5090801;28;20669;-67
2022/04/28 00:15:06;;;;;;;7.40;6.70;;;12.60;99.20;;;;;;5090833;28;20206;-67
2022/04/28 00:17:33;;;;;;;7.27;6.10;;;12.60;99.40;;;;;;5091117;28;20203;-67
2022/04/28 00:20:00;;;;;;;7.27;6.33;;;12.60;99.50;;;;;;5090592;28;20242;-67
2022/04/28 00:22:27;;;;;;;7.53;6.57;;;12.60;99.60;;;;;;5090509;28;20203;-68
2022/04/28 00:24:53;;;;;;;8.70;6.50;;;12.60;99.60;;;;;;5090620;28;20203;-68
2022/04/28 00:27:22;;;;;;;9.23;7.00;;;12.60;99.70;;;;;;5090878;28;20229;-68
2022/04/28 00:29:48;;;;;;;8.83;7.17;;;12.60;99.80;;;;;;5090812;28;20248;-68
2022/04/28 00:32:15;;;;;;;7.03;6.40;;;12.60;99.80;;;;;;5090731;28;20207;-68
2022/04/28 00:34:42;;;;;;;7.60;6.40;;;12.60;99.70;;;;;;5090654;28;20206;-68
2022/04/28 00:37:09;;;;;;;8.23;6.53;;;12.60;99.60;;;;;;5090611;28;20218;-68
2022/04/28 00:39:38;;;;;;;7.07;6.37;;;12.60;99.50;;;;;;5076125;28;20714;-68
2022/04/28 00:42:09;;;;;;;8.17;6.63;;;12.60;99.40;;;;;;5078903;28;20256;-68
2022/04/28 00:44:37;;;;;;;7.93;6.63;;;12.60;99.30;;;;;;5090768;28;20229;-68
2022/04/28 00:47:05;;;;;;;7.77;7.00;;;12.60;99.40;;;;;;5090507;28;20207;-68
2022/04/28 00:52:16;;;;;;;9.47;6.93;;;12.40;99.50;;;;;;5089937;28;20206;-68
2022/04/28 00:54:45;;;;;;;7.80;6.80;;;12.40;99.60;;;;;;5090019;28;20207;-68
2022/04/28 00:57:13;;;;;;;7.27;6.67;;;12.40;99.60;;;;;;5090388;28;20207;-68
2022/04/28 00:59:41;;;;;;;7.27;6.40;;;12.10;99.70;;;;;;5090081;28;20207;-68
2022/04/28 01:02:10;;;;;;;7.20;6.53;;;12.20;99.80;;;;;;5073979;28;20286;-68
2022/04/28 01:04:37;;;;;;;6.73;6.20;;;12.20;99.70;;;;;;5070031;28;20312;-68
2022/04/28 01:07:04;;;;;;;7.10;6.43;;;12.20;99.70;;;;;;5069749;28;20200;-68
2022/04/28 01:09:33;;;;;;;6.37;5.77;;;12.20;99.70;;;;;;5069548;28;20207;-68
2022/04/28 01:12:00;;;;;;;7.03;6.20;;;12.10;99.60;;;;;;5069793;28;20211;-68
2022/04/28 01:14:27;;;;;;;6.40;5.90;;;11.80;99.80;;;;;;5069318;28;20226;-68
2022/04/28 01:16:55;;;;;;;7.47;5.93;;;11.80;99.90;;;;;;5082225;28;20202;-67
2022/04/28 01:19:21;;;;;;;7.13;5.90;;;11.90;99.90;;;;;;5088992;28;20227;-67
2022/04/28 01:21:51;;;;;;;7.47;6.33;;;11.90;99.90;;;;;;5089794;28;20215;-68
2022/04/28 01:24:18;;;;;;;6.40;5.80;;;11.90;99.90;;;;;;5089110;28;20231;-68
2022/04/28 01:26:45;;;;;;;5.80;5.40;;;11.90;99.90;;;;;;5089603;28;20688;-69
2022/04/28 01:29:12;;;;;;;8.37;5.57;;;12.00;99.90;;;;;;5089469;28;20257;-68
2022/04/28 01:31:38;;;;;;;6.90;6.20;;;12.00;99.90;;;;;;5089712;28;20209;-69
2022/04/28 01:34:05;;;;;;;6.80;6.23;;;11.90;99.90;;;;;;5089350;28;20211;-69
2022/04/28 01:36:32;;;;;;;6.90;6.20;;;11.90;99.90;;;;;;5088892;28;20207;-68
2022/04/28 01:39:00;;;;;;;7.57;5.93;;;11.90;99.90;;;;;;5088911;28;20270;-70
2022/04/28 01:41:27;;;;;;;9.40;6.23;;;11.90;99.90;;;;;;5088987;28;20199;-69
2022/04/28 01:43:56;;;;;;;7.60;6.50;;;11.90;99.90;;;;;;5088906;28;20291;-69
2022/04/28 01:46:23;;;;;;;6.37;5.77;;;11.80;99.90;;;;;;5089474;28;20236;-68
2022/04/28 01:48:50;;;;;;;7.20;6.50;;;11.80;99.90;;;;;;5089372;28;20203;-68
2022/04/28 01:56:46;;;;;;;6.80;6.10;;;11.70;99.90;;;;;;5089151;28;20198;-68
2022/04/28 01:59:13;;;;;;;8.20;6.77;;;11.70;99.90;;;;;;5088534;28;20264;-68
2022/04/28 02:01:40;;;;;;;7.20;6.60;;;11.70;99.90;;;;;;5088691;28;20203;-68
2022/04/28 02:04:06;;;;;;;6.70;6.00;;;11.60;99.90;;;;;;5088864;28;20235;-68
2022/04/28 02:06:33;;;;;;;7.10;6.50;;;11.60;99.90;;;;;;5088362;28;20347;-69
2022/04/28 02:09:00;;;;;;;7.87;6.60;;;11.60;99.90;;;;;;5088590;28;20230;-68
2022/04/28 02:11:28;;;;;;;6.53;5.77;;;11.60;99.90;;;;;;5088854;28;20293;-68
2022/04/28 02:13:54;;;;;;;7.37;6.67;;;11.60;99.90;;;;;;5088558;28;20207;-68
2022/04/28 02:16:21;;;;;;;6.90;6.13;;;11.60;99.90;;;;;;5088628;28;20256;-70
2022/04/28 02:18:47;;;;;;;7.00;6.27;;;11.50;99.90;;;;;;5088700;28;20227;-70
2022/04/28 02:21:14;;;;;;;7.83;6.07;;;11.50;99.90;;;;;;5088544;28;20664;-68
2022/04/28 02:23:41;;;;;;;6.77;5.57;;;11.50;99.90;;;;;;5088135;28;20280;-68
2022/04/28 02:26:07;;;;;;;7.07;6.30;;;11.40;99.90;;;;;;5088043;28;20203;-69
2022/04/28 02:28:35;;;;;;;7.00;6.30;;;11.40;99.90;;;;;;5079943;28;20222;-68
2022/04/28 02:31:04;;;;;;;7.90;6.17;;;11.40;99.90;;;;;;5071190;28;20206;-68
2022/04/28 02:33:31;;;;;;;8.53;6.23;;;11.30;99.90;;;;;;5085751;28;20688;-68
2022/04/28 02:35:58;;;;;;;7.17;5.90;;;11.30;99.90;;;;;;5085973;28;20214;-68
2022/04/28 02:38:24;;;;;;;7.27;6.57;;;11.20;99.90;;;;;;5085748;28;20238;-68
2022/04/28 02:40:51;;;;;;;6.70;6.10;;;11.10;99.90;;;;;;5085876;28;20232;-69
2022/04/28 02:43:18;;;;;;;8.13;6.10;;;10.90;99.90;;;;;;5085976;28;20206;-69
2022/04/28 02:45:48;;;;;;;6.80;6.20;;;11.00;99.90;;;;;;5085968;28;20259;-69
2022/04/28 02:48:15;;;;;;;7.07;6.40;;;10.90;99.90;;;;;;5086330;28;20573;-69
2022/04/28 02:50:42;;;;;;;7.90;7.10;;;10.90;99.90;;;;;;5086302;28;20252;-69
2022/04/28 02:53:08;;;;;;;7.47;6.73;;;10.90;99.90;;;;;;5085407;28;20257;-69
2022/04/28 02:55:35;;;;;;;7.30;6.40;;;10.90;99.90;;;;;;5085744;28;20202;-70
2022/04/28 02:58:02;;;;;;;7.40;6.50;;;10.90;99.90;;;;;;5084915;28;20285;-70
2022/04/28 03:00:28;;;;;;;8.33;7.03;;;10.90;99.90;;;;;;5087481;28;20264;-70
2022/04/28 03:02:56;;;;;;;7.67;6.97;;;10.90;99.90;;;;;;5087473;28;20207;-70
2022/04/28 03:05:23;;;;;;;9.17;6.40;;;10.90;99.90;;;;;;5087197;28;20366;-70
2022/04/28 03:10:50;;;;;;;9.33;6.80;;;10.90;99.90;;;;;;5086510;28;20229;-70
2022/04/28 03:13:18;;;;;;;8.60;6.57;;;10.80;99.90;;;;;;5086723;28;20286;-70
2022/04/28 03:15:45;;;;;;;6.60;6.03;;;10.80;99.90;;;;;;5086497;28;20202;-70
2022/04/28 03:18:13;;;;;;;7.10;6.33;;;10.80;99.90;;;;;;5086278;28;20250;-70
2022/04/28 03:20:40;;;;;;;7.70;6.70;;;10.80;99.90;;;;;;5086314;28;20234;-70
2022/04/28 03:23:07;;;;;;;7.37;6.63;;;10.70;99.90;;;;;;5086339;28;20203;-70
2022/04/28 03:25:33;;;;;;;8.20;6.83;;;10.70;99.90;;;;;;5087286;28;20718;-70
2022/04/28 03:28:00;;;;;;;8.97;6.90;;;10.70;99.90;;;;;;5086977;28;20237;-70
2022/04/28 03:30:27;;;;;;;8.30;6.50;;;10.30;99.90;;;;;;5087505;28;20207;-70
2022/04/28 03:32:54;;;;;;;7.40;5.97;;;10.20;99.90;;;;;;5087449;28;20210;-70
2022/04/28 03:35:22;;;;;;;6.93;6.33;;;10.20;99.90;;;;;;5087536;28;20610;-70
2022/04/28 03:37:49;;;;;;;6.50;5.67;;;10.20;99.90;;;;;;5087581;28;20229;-70
2022/04/28 03:40:16;;;;;;;7.13;6.43;;;10.20;99.90;;;;;;5086805;28;20238;-70
2022/04/28 03:42:44;;;;;;;6.90;6.20;;;10.30;99.90;;;;;;5091058;28;20296;-70
2022/04/28 03:45:11;;;;;;;7.33;6.63;;;10.20;99.90;;;;;;5091050;28;20726;-70
2022/04/28 03:47:38;;;;;;;8.77;6.60;;;10.10;99.90;;;;;;5091159;28;20218;-70
2022/04/28 03:50:05;;;;;;;8.73;6.47;;;10.20;99.90;;;;;;5091382;28;20229;-70
2022/04/28 03:52:33;;;;;;;6.97;6.20;;;10.20;99.90;;;;;;5091238;28;20210;-70
2022/04/28 03:55:00;;;;;;;7.47;6.53;;;10.20;99.90;;;;;;5090936;28;20211;-70
2022/04/28 03:57:27;;;;;;;7.07;6.47;;;10.20;99.90;;;;;;5091255;28;20271;-70
2022/04/28 03:59:55;;;;;;;7.40;6.67;;;10.20;99.90;;;;;;5091379;28;20609;-70
2022/04/28 04:02:22;;;;;;;7.90;6.07;;;10.20;99.90;;;;;;5090959;28;20198;-70
2022/04/28 04:04:49;;;;;;;7.37;6.63;;;10.20;99.90;;;;;;5091293;28;20311;-70
2022/04/28 04:07:15;;;;;;;7.07;6.47;;;10.30;99.90;;;;;;5090951;28;20255;-70
2022/04/28 04:09:43;;;;;;;8.00;6.70;;;10.30;99.90;;;;;;5090978;28;20636;-70
2022/04/28 04:12:10;;;;;;;9.93;6.93;;;10.20;99.90;;;;;;5090969;28;20335;-70
2022/04/28 04:14:37;;;;;;;11.53;7.23;;;10.20;99.90;;;;;;5091266;28;20211;-70
2022/04/28 04:17:05;;;;;;;7.30;6.50;;;10.20;99.90;;;;;;5090962;28;20209;-67
2022/04/28 04:19:31;;;;;;;7.73;6.50;;;10.20;99.90;;;;;;5090775;28;20237;-70
2022/04/28 04:21:58;;;;;;;8.20;6.57;;;10.20;99.90;;;;;;5090542;28;20215;-69
2022/04/28 04:24:25;;;;;;;7.90;6.80;;;10.20;99.90;;;;;;5078202;28;20234;-70
2022/04/28 04:26:54;;;;;;;7.50;6.67;;;10.10;99.90;;;;;;5070845;28;20199;-70
2022/04/28 04:29:20;;;;;;;7.57;6.47;;;10.10;99.90;;;;;;5070539;28;20261;-70
2022/04/28 04:34:31;;;;;;;8.77;7.07;;;10.10;99.90;;;;;;5070456;28;20203;-70
2022/04/28 04:36:58;;;;;;;7.47;6.77;;;10.00;99.90;;;;;;5070494;28;20204;-69
2022/04/28 04:39:25;;;;;;;11.00;6.40;;;10.00;99.90;;;;;;5082312;28;20231;-69
2022/04/28 04:41:51;;;;;;;9.87;7.10;;;10.00;99.90;;;;;;5090652;28;20214;-70
2022/04/28 04:44:19;;;;;;;7.83;7.10;;;10.00;99.90;;;;;;5090476;28;20230;-70
2022/04/28 04:46:46;;;;;;;10.90;7.17;;;10.10;99.90;;;;;;5090434;28;20240;-70
2022/04/28 04:49:13;;;;;;;7.60;6.80;;;10.10;99.90;;;;;;5090307;28;20207;-70
2022/04/28 04:51:39;;;;;;;8.47;7.50;;;10.10;99.90;;;;;;5090068;28;20199;-70
2022/04/28 04:54:06;;;;;;;7.83;7.00;;;10.00;99.90;;;;;;5088901;28;20264;-70
2022/04/28 04:56:33;;;;;;;7.47;6.73;;;9.90;99.90;;;;;;5090515;28;20199;-70
2022/04/28 04:59:00;;;;;;;8.50;7.47;;;10.00;99.90;;;;;;5086773;28;20301;-70
2022/04/28 05:01:28;;;;;;;8.80;7.90;;;9.90;99.90;;;;;;5079343;28;20208;-70
2022/04/28 05:03:55;;;;;;;10.20;7.77;;;10.00;99.90;;;;;;5069644;28;20269;-70
2022/04/28 05:06:23;;;;;;;9.50;7.43;;;9.80;99.90;;;;;;5069373;28;20207;-70
2022/04/28 05:08:50;;;;;;;8.27;7.57;;;9.90;99.90;;;;;;5069790;28;20203;-69
2022/04/28 05:11:18;;;;;;;8.77;7.93;;;10.00;99.90;;;;;;5069605;28;20203;-70
2022/04/28 05:13:45;;;;;;;8.47;7.67;;;10.10;99.90;;;;;;5069402;28;20214;-70
2022/04/28 05:16:11;;;;;;;8.27;7.37;;;10.10;99.90;;;;;;5069085;28;20425;-70
2022/04/28 05:18:39;;;;;;;10.67;8.30;;;10.10;99.90;;;;;;5069344;28;20231;-70
2022/04/28 05:21:06;;;;;;;7.90;7.20;;;9.80;99.90;;;;;;5085253;28;20218;-70
2022/04/28 05:23:35;;;;;;;8.97;7.57;;;10.00;99.90;;;;;;5089356;28;20264;-70
2022/04/28 05:26:02;;;;;;;10.43;7.60;;;10.00;99.90;;;;;;5089399;28;20607;-70
2022/04/28 05:28:28;;;;;;;11.83;8.47;;;9.90;99.90;;;;;;5089580;28;20207;-70
2022/04/28 05:30:55;;;;;;;8.60;7.70;;;9.90;99.90;;;;;;5089499;28;20207;-70
2022/04/28 05:33:22;;;;;;;8.37;7.63;;;9.80;99.90;;;;;;5089187;28;20699;-70
2022/04/28 05:35:51;;;;;;;8.87;8.00;;;9.90;99.90;;;;;;5088710;28;20214;-70
2022/04/28 05:38:17;;;;;;;11.93;8.53;;;9.80;99.90;;;;;;5088286;28;20665;-70
2022/04/28 05:40:45;;;;;;;8.50;7.70;;;9.90;99.90;;;;;;5089233;28;20214;-70
2022/04/28 05:46:00;;;;;;;12.20;7.63;;;9.80;99.90;;;;;;5088954;28;20784;-70
2022/04/28 05:48:27;;;;;;;9.83;7.73;;;9.80;99.90;;;;;;5089240;28;20264;-70
2022/04/28 05:50:55;;;;;;;7.77;7.00;;;10.00;99.90;;;;;;5088723;28;20252;-70
2022/04/28 05:53:21;;;;;;;8.40;7.60;;;10.10;99.90;;;;;;5088675;28;20211;-70
2022/04/28 05:55:48;;;;;;;9.37;8.40;;;10.30;99.90;;;;;;5088729;28;20206;-70
2022/04/28 05:58:15;;;;;;;8.10;7.27;;;10.20;99.90;;;;;;5088695;28;20213;-70
2022/04/28 06:00:42;;;;;;;8.40;6.67;;;10.30;99.90;;;;;;5084557;28;20199;-70
2022/04/28 06:03:15;;;;;;;9.77;7.67;;;10.50;99.90;;;;;;5068253;28;20210;-70
2022/04/28 06:05:42;;;;;;;8.60;7.70;;;10.40;99.90;;;;;;5068198;28;20220;-70
2022/04/28 06:08:12;;;;;;;12.50;7.80;;;10.60;99.90;;;;;;5067744;28;20640;-70
2022/04/28 06:10:39;;;;;;;8.13;7.33;;;10.60;99.90;;;;;;5068611;28;20211;-70
2022/04/28 06:13:08;;;;;;;8.23;7.53;;;10.70;99.90;;;;;;5068050;28;20204;-70
2022/04/28 06:15:35;;;;;;;8.80;7.90;;;10.80;99.90;;;;;;5069875;28;20210;-70
2022/04/28 06:18:01;;;;;;;8.40;7.23;;;10.80;99.90;;;;;;5087721;28;20704;-70
2022/04/28 06:20:28;;;;;;;11.73;7.50;;;10.90;99.90;;;;;;5088428;28;20689;-70
2022/04/28 06:22:55;;;;;;;10.97;7.80;;;11.00;99.90;;;;;;5087834;28;20203;-70
2022/04/28 06:25:24;;;;;;;8.57;7.67;;;11.00;99.90;;;;;;5088048;28;20260;-70
2022/04/28 06:27:51;;;;;;;9.27;8.37;;;11.10;99.90;;;;;;5088305;28;20294;-70
2022/04/28 06:30:18;;;;;;;12.13;7.80;;;11.20;99.90;;;;;;5088222;28;20203;-70
2022/04/28 06:32:44;;;;;;;11.03;8.37;;;11.10;99.90;;;;;;5088255;28;20283;-70
2022/04/28 06:35:11;;;;;;;8.80;8.00;;;11.20;99.90;;;;;;5088114;28;20211;-70
2022/04/28 06:37:39;;;;;;;11.23;8.97;;;11.30;99.90;;;;;;5088013;28;20202;-70
2022/04/28 06:40:07;;;;;;;8.97;8.10;;;11.20;99.90;;;;;;5087418;28;20238;-70
2022/04/28 06:42:35;;;;;;;9.27;8.10;;;11.30;99.90;;;;;;5087525;28;20206;-70
2022/04/28 06:45:05;;;;;;;15.83;8.30;;;11.30;99.90;;;;;;5067835;28;20238;-71
2022/04/28 06:47:31;;;;;;;12.27;8.07;;;11.50;99.90;;;;;;5067835;28;20208;-70
2022/04/28 06:50:00;;;;;;;10.80;9.00;;;11.60;99.90;;;;;;5067780;28;20207;-70
2022/04/28 06:52:26;;;;;;;8.57;7.87;;;11.60;99.90;;;;;;5067663;28;20207;-70
2022/04/28 06:54:53;;;;;;;12.07;7.80;;;11.70;99.90;;;;;;5067629;28;20632;-70
2022/04/28 06:57:20;;;;;;;9.43;7.60;;;11.70;99.90;;;;;;5067650;28;20207;-70
2022/04/28 06:59:48;;;;;;;12.23;7.73;;;11.60;99.90;;;;;;5067462;28;20290;-70
2022/04/28 07:02:15;;;;;;;9.60;7.77;;;11.60;99.90;;;;;;5050515;28;20208;-70
2022/04/28 07:04:43;;;;;;;9.80;7.90;;;11.80;99.90;;;;;;5047456;28;20253;-70
2022/04/28 07:07:10;;;;;;;12.00;7.20;;;11.70;99.90;;;;;;5047346;28;20204;-70
2022/04/28 07:09:36;;;;;;;8.67;7.60;;;11.80;99.90;;;;;;5047388;28;20358;-70
2022/04/28 07:12:03;;;;;;;9.63;7.30;;;11.80;99.90;;;;;;5051086;28;20200;-70
2022/04/28 07:14:30;;;;;;;8.20;7.40;;;11.70;99.90;;;;;;5067463;28;20203;-70
2022/04/28 07:16:58;;;;;;;19.10;7.43;;;11.80;99.90;;;;;;5066388;28;20199;-70
2022/04/28 07:19:25;;;;;;;10.90;6.67;;;12.00;99.90;;;;;;5067367;28;20223;-70
2022/04/28 07:21:52;;;;;;;7.57;5.63;;;12.10;99.90;;;;;;5067219;28;20203;-70
2022/04/28 07:24:18;;;;;;;12.87;6.10;;;12.30;99.90;;;;;;5066499;28;20211;-70
2022/04/28 07:26:45;;;;;;;12.40;6.40;;;12.40;99.90;;;;;;5066613;28;20674;-70
2022/04/28 07:29:12;;;;;;;7.43;6.10;;;12.50;99.90;;;;;;5066934;28;20211;-70
2022/04/28 07:31:38;;;;;;;10.10;5.80;;;12.60;99.90;;;;;;5067155;28;20222;-70
2022/04/28 07:34:06;;;;;;;8.53;5.70;;;12.60;99.90;;;;;;5067154;28;20210;-70
2022/04/28 07:36:36;;;;;;;9.77;6.90;;;12.70;99.90;;;;;;5066522;28;20731;-70
2022/04/28 07:39:03;;;;;;;8.70;6.93;;;12.70;99.90;;;;;;5066618;28;20741;-70
2022/04/28 07:41:29;;;;;;;8.40;6.30;;;12.80;99.90;;;;;;5066471;28;20260;-70
2022/04/28 07:43:56;;;;;;;16.30;6.83;;;12.60;99.90;;;;;;5066962;28;20239;-70
2022/04/28 07:46:23;;;;;;;8.13;6.03;;;12.60;99.90;;;;;;5066909;28;20300;-70
2022/04/28 07:48:49;;;;;;;10.23;5.43;;;12.70;99.90;;;;;;5066943;28;20207;-70
2022/04/28 07:51:17;;;;;;;8.83;5.07;;;12.70;99.90;;;;;;5066429;28;20691;-68
2022/04/28 07:53:44;;;;;;;9.60;4.97;;;12.60;99.90;;;;;;5066657;28;20282;-68
2022/04/28 07:56:17;;;;;;;6.70;4.43;;;12.70;99.90;;;;;;5066809;28;20269;-68
2022/04/28 07:58:45;;;;;;;11.20;4.43;;;12.80;99.90;;;;;;5066875;28;20246;-67
2022/04/28 08:01:12;;;;;;;8.57;4.53;;;12.80;99.90;;;;;;5066376;28;20230;-68
2022/04/28 08:03:39;;;;;;;9.20;4.73;;;12.70;99.90;;;;;;5066277;28;20637;-68
2022/04/28 08:06:07;;;;;;;6.40;4.03;;;12.80;99.90;;;;;;5066758;28;20591;-68
2022/04/28 08:08:36;;;;;;;5.13;3.87;;;12.80;99.90;;;;;;5066105;28;20257;-68
2022/04/28 08:11:06;;;;;;;8.07;4.27;;;12.90;99.90;;;;;;5066387;28;21042;-68
2022/04/28 08:13:34;;;;;;;5.13;4.47;;;13.00;99.90;;;;;;5067004;28;20265;-68
2022/04/28 08:16:01;;;;;;;5.73;4.00;;;12.90;99.90;;;;;;5066697;28;20204;-67
2022/04/28 08:18:29;;;;;;;7.47;4.70;;;13.00;99.90;;;;;;5066536;28;20562;-68
2022/04/28 08:20:55;;;;;;;8.47;4.00;;;12.90;99.90;;;;;;5066610;28;20215;-70
2022/04/28 08:23:22;;;;;;;5.97;4.00;;;12.80;99.90;;;;;;5065879;28;20203;-70
2022/04/28 08:25:52;;;;;;;6.80;4.40;;;12.80;99.90;;;;;;5066322;28;20255;-70
2022/04/28 08:28:18;;;;;;;8.23;3.90;;;12.90;99.90;;;;;;5069194;28;20207;-70
2022/04/28 08:30:47;;;;;;;9.60;4.37;;;12.90;99.90;;;;;;5069926;28;20629;-70
2022/04/28 08:33:14;;;;;;;12.77;4.17;;;13.10;99.90;;;;;;5069736;28;20217;-70
2022/04/28 08:35:41;;;;;;;5.60;4.93;;;13.30;99.90;;;;;;5069765;28;20674;-70
2022/04/28 08:38:07;;;;;;;5.73;4.23;;;13.30;99.90;;;;;;5069051;28;20245;-68
2022/04/28 08:40:34;;;;;;;7.03;4.83;;;13.30;99.90;;;;;;5070195;28;20253;-70
2022/04/28 08:43:05;;;;;;;5.17;4.47;;;13.40;99.90;;;;;;5069886;28;20211;-70
2022/04/28 08:45:39;;;;;;;6.67;4.73;;;13.50;99.90;;;;;;5070203;28;20215;-70
2022/04/28 08:48:07;;;;;;;9.03;4.53;;;13.70;99.90;;;;;;5069741;28;20200;-70
2022/04/28 08:50:34;;;;;;;8.40;5.30;;;13.80;99.90;;;;;;5069814;28;20311;-70
2022/04/28 08:53:04;;;;;;;7.97;4.17;;;13.90;99.90;;;;;;5069062;28;20697;-67
2022/04/28 08:55:30;;;;;;;6.73;4.50;;;14.10;99.90;;;;;;5069345;28;20834;-70
2022/04/28 08:57:57;;;;;;;7.10;3.97;;;14.20;99.80;;;;;;5069749;28;20260;-70
2022/04/28 09:00:25;;;;;;;7.07;4.70;;;14.40;99.90;;;;;;5068335;28;20204;-70
2022/04/28 09:02:52;;;;;;;6.90;4.80;;;14.40;99.30;;;;;;5049951;28;20258;-70
2022/04/28 09:05:20;;;;;;;4.87;4.53;;;14.50;98.70;;;;;;5051194;28;20212;-70
2022/04/28 09:07:48;;;;;;;6.10;4.50;;;14.40;98.40;;;;;;5049810;28;20244;-69
2022/04/28 09:10:30;;;;;;;7.87;6.83;;;14.50;99.20;;;;;;5049087;28;20578;-70
2022/04/28 09:12:58;;;;;;;8.57;5.13;;;14.50;98.70;;;;;;5049589;28;20242;-70
2022/04/28 09:15:26;;;;;;;5.93;4.87;;;14.60;99.10;;;;;;5049324;28;20204;-68
2022/04/28 09:17:52;;;;;;;7.50;5.13;;;14.60;98.60;;;;;;5049650;28;20293;-67
2022/04/28 09:20:22;;;;;;;5.43;4.63;;;14.60;98.40;;;;;;5058395;28;20219;-67
2022/04/28 09:22:54;;;;;;;9.63;4.70;;;14.70;97.90;;;;;;5068946;28;20203;-70
2022/04/28 09:25:22;;;;;;;20.80;6.30;;;14.90;98.30;;;;;;5069186;28;20223;-70
2022/04/28 09:27:49;;;;;;;8.17;4.93;;;15.10;96.30;;;;;;5069406;28;20286;-70
2022/04/28 09:30:16;;;;;;;5.90;5.00;;;15.10;96.10;;;;;;5069135;28;20212;-70
2022/04/28 09:32:44;;;;;;;6.57;4.70;;;15.20;95.90;;;;;;5069304;28;21039;-70
2022/04/28 09:35:12;;;;;;;6.07;5.20;;;15.10;95.80;;;;;;5069142;28;20204;-70
2022/04/28 09:37:38;;;;;;;5.93;4.13;;;15.10;96.20;;;;;;5068712;28;20289;-70
2022/04/28 09:42:53;;;;;;;8.17;4.70;;;15.10;97.10;;;;;;5068830;28;20206;-70
2022/04/28 09:45:23;;;;;;;7.77;5.60;;;14.90;96.60;;;;;;5068259;28;20727;-70
2022/04/28 09:48:01;;;;;;;5.67;4.73;;;14.90;96.50;;;;;;5068763;28;20207;-70
2022/04/28 09:50:30;;;;;;;8.40;5.23;;;14.80;96.80;;;;;;5068693;28;20221;-70
2022/04/28 09:52:58;;;;;;;6.60;5.20;;;14.70;97.10;;;;;;5068362;28;20224;-70
2022/04/28 09:55:26;;;;;;;5.47;4.97;;;14.60;96.80;;;;;;5068713;28;20203;-70
2022/04/28 09:57:53;;;;;;;6.10;4.37;;;14.50;96.10;;;;;;5068461;28;20203;-70
2022/04/28 10:00:21;;;;;;;8.47;4.57;;;14.70;96.40;;;;;;5067435;28;20268;-70
2022/04/28 10:02:49;;;;;;;7.17;4.87;;;15.00;95.20;;;;;;5066596;28;20243;-69
2022/04/28 10:05:18;;;;;;;5.33;4.37;;;15.20;94.50;;;;;;5067936;28;20204;-69
2022/04/28 10:07:45;;;;;;;6.63;4.53;;;15.30;94.80;;;;;;5068169;28;20262;-70
2022/04/28 10:10:12;;;;;;;8.60;4.37;;;15.50;95.10;;;;;;5067834;28;20260;-70
2022/04/28 10:12:40;;;;;;;5.33;4.80;;;15.50;95.20;;;;;;5068246;28;20215;-70
2022/04/28 10:15:11;;;;;;;9.43;5.17;;;15.50;95.00;;;;;;5068071;28;20387;-70
2022/04/28 10:17:43;;;;;;;13.27;5.63;;;15.50;95.30;;;;;;5067912;28;20290;-67
2022/04/28 10:20:15;;;;;;;8.53;4.43;;;15.40;95.50;;;;;;5068048;28;20191;-70
2022/04/28 10:22:45;;;;;;;10.40;4.83;;;15.40;95.30;;;;;;5067977;28;20204;-70
2022/04/28 10:33:41;;;;;;;11.53;4.80;;;15.90;94.80;;;;;;5067751;28;20245;-67
2022/04/28 10:36:18;;;;;;;6.77;5.37;;;16.10;94.80;;;;;;5067935;28;20214;-70
2022/04/28 10:39:07;;;;;;;5.40;4.87;;;16.10;94.50;;;;;;5067517;28;21063;-67
2022/04/28 10:41:34;;;;;;;5.17;4.77;;;16.20;94.80;;;;;;5062965;28;20266;-67
2022/04/28 10:44:15;;;;;;;6.17;4.60;;;16.40;94.50;;;;;;5047606;28;20662;-67
2022/04/28 10:46:56;;;;;;;7.10;4.60;;;16.60;94.60;;;;;;5048002;28;20232;-67
2022/04/28 10:49:25;;;;;;;8.33;4.80;;;16.50;93.30;;;;;;5048145;28;20253;-67
2022/04/28 10:52:00;;;;;;;4.47;4.03;;;16.30;93.20;;;;;;5047755;28;20218;-67
2022/04/28 10:54:43;;;;;;;7.43;4.27;;;16.40;93.10;;;;;;5047693;28;20196;-67
2022/04/28 10:57:13;;;;;;;4.50;4.10;;;16.60;92.90;;;;;;5050468;28;20210;-67
2022/04/28 10:59:48;;;;;;;4.43;3.93;;;16.80;92.50;;;;;;5067560;28;20204;-67
2022/04/28 11:02:40;;;;;;;4.70;3.97;;;17.00;92.10;;;;;;5050780;28;20253;-67
2022/04/28 11:05:43;;;;;;;4.30;3.90;;;17.30;92.20;;;;;;5047762;28;20249;-68
2022/04/28 11:08:35;;;;;;;5.40;4.67;;;17.10;91.50;;;;;;5047103;28;20192;-67
2022/04/28 11:11:12;;;;;;;6.10;4.33;;;16.80;92.10;;;;;;5047328;28;20239;-70
2022/04/28 11:13:40;;;;;;;6.30;4.17;;;17.00;92.50;;;;;;5063275;28;20592;-70
2022/04/28 11:16:08;;;;;;;6.33;4.03;;;17.20;93.00;;;;;;5067379;28;20203;-67
2022/04/28 11:18:35;;;;;;;4.23;3.23;;;17.30;92.00;;;;;;5067385;28;20223;-67
2022/04/28 11:21:05;;;;;;;4.07;3.67;;;17.60;92.10;;;;;;5067262;28;20212;-67
2022/04/28 11:23:37;;;;;;;6.23;4.03;;;17.80;91.80;;;;;;5066965;28;20203;-68
2022/04/28 11:26:06;;;;;;;6.40;3.80;;;18.00;91.70;;;;;;5066969;28;20812;-67
2022/04/28 11:28:35;;;;;;;5.67;3.87;;;17.90;91.10;;;;;;5067570;28;20210;-67
2022/04/28 11:31:07;;;;;;;5.73;4.10;;;17.70;91.00;;;;;;5067213;28;20203;-67
2022/04/28 11:33:34;;;;;;;4.33;3.90;;;17.60;90.90;;;;;;5067293;28;20198;-67
2022/04/28 11:36:01;;;;;;;17.03;4.60;;;17.40;90.40;;;;;;5067107;28;20207;-68
2022/04/28 11:38:29;;;;;;;5.17;3.57;;;17.20;90.70;;;;;;5066693;28;20235;-68
2022/04/28 11:41:09;;;;;;;7.73;3.47;;;17.30;90.80;;;;;;5067296;28;20264;-68
2022/04/28 11:43:37;;;;;;;4.50;3.83;;;17.40;91.20;;;;;;5047043;28;20865;-68
2022/04/28 11:46:11;;;;;;;6.23;3.33;;;17.60;90.80;;;;;;5046937;28;20235;-68
2022/04/28 11:48:40;;;;;;;4.40;3.87;;;17.90;90.60;;;;;;5047237;28;20276;-68
2022/04/28 11:51:06;;;;;;;4.03;3.10;;;18.00;89.20;;;;;;5049874;28;20659;-68
2022/04/28 11:53:42;;;;;;;5.73;3.73;;;18.10;89.70;;;;;;5065894;28;20204;-68
2022/04/28 11:56:19;;;;;;;7.77;4.60;;;18.30;89.20;;;;;;5066957;28;20207;-68
2022/04/28 11:58:49;;;;;;;6.40;4.20;;;18.20;89.60;;;;;;5066737;28;20208;-68
2022/04/28 12:01:17;;;;;;;9.13;4.10;;;18.00;89.70;;;;;;5058031;28;20212;-68
2022/04/28 12:03:54;;;;;;;6.50;4.23;;;18.00;89.80;;;;;;5050565;28;20208;-68
2022/04/28 12:06:28;;;;;;;6.73;3.73;;;17.60;89.50;;;;;;5050722;28;20235;-68
2022/04/28 12:08:56;;;;;;;8.83;3.57;;;17.50;90.90;;;;;;5058068;28;20214;-68
2022/04/28 12:14:23;;;;;;;4.90;3.93;;;17.70;89.50;;;;;;5070434;28;20194;-68
2022/04/28 12:19:51;;;;;;;5.77;3.60;;;17.90;90.40;;;;;;5070652;28;20365;-68
2022/04/28 12:22:29;;;;;;;6.80;3.13;;;18.40;89.30;;;;;;5058257;28;20237;-68
2022/04/28 12:25:00;;;;;;;4.90;3.83;;;18.70;87.60;;;;;;5069964;28;20619;-68
2022/04/28 12:27:36;;;;;;;6.43;5.33;;;19.00;87.60;;;;;;5070611;28;20277;-68
2022/04/28 12:30:09;;;;;;;5.53;4.33;;;19.20;87.30;;;;;;5070208;28;20210;-68
2022/04/28 12:32:43;;;;;;;5.57;4.70;;;19.20;86.70;;;;;;5070372;28;20194;-68
2022/04/28 12:35:10;;;;;;;3.87;3.57;;;18.90;86.70;;;;;;5070469;28;20282;-68
2022/04/28 12:37:39;;;;;;;5.97;3.83;;;19.00;87.50;;;;;;5070154;28;20207;-68
2022/04/28 12:40:08;;;;;;;6.53;3.70;;;19.20;86.90;;;;;;5069702;28;20242;-68
2022/04/28 12:42:46;;;;;;;3.77;3.30;;;19.10;86.80;;;;;;5069991;28;20226;-68
2022/04/28 12:45:16;;;;;;;3.97;3.40;;;19.00;87.40;;;;;;5069788;28;20803;-68
2022/04/28 12:47:58;;;;;;;7.47;3.50;;;18.80;88.00;;;;;;5070044;28;20239;-69
2022/04/28 12:50:35;;;;;;;5.13;4.03;;;18.80;88.70;;;;;;5069396;28;20215;-68
2022/04/28 12:53:03;;;;;;;4.67;4.17;;;18.80;87.60;;;;;;5069574;28;20211;-68
2022/04/28 12:55:41;;;;;;;5.77;4.40;;;18.50;86.90;;;;;;5069965;28;20203;-68
2022/04/28 12:58:09;;;;;;;5.23;3.97;;;18.70;87.40;;;;;;5069386;28;20203;-68
2022/04/28 13:00:59;;;;;;;6.97;3.90;;;18.90;84.90;;;;;;5070089;28;20269;-68
2022/04/28 13:03:28;;;;;;;11.40;5.07;;;18.80;85.70;;;;;;5070084;28;20200;-68
2022/04/28 13:06:00;;;;;;;6.27;3.30;;;18.30;85.40;;;;;;5069822;28;20211;-68
2022/04/28 13:08:27;;;;;;;4.30;3.90;;;18.40;85.70;;;;;;5069522;28;20236;-68
2022/04/28 13:10:54;;;;;;;6.03;3.40;;;18.70;86.00;;;;;;5069698;28;20203;-68
2022/04/28 13:13:21;;;;;;;7.30;3.30;;;19.00;85.00;;;;;;5068886;28;20211;-68
2022/04/28 13:15:49;;;;;;;11.00;3.80;;;19.40;84.80;;;;;;5068295;28;20207;-68
2022/04/28 13:18:16;;;;;;;6.80;4.17;;;19.60;84.90;;;;;;5051723;28;20269;-68
2022/04/28 13:20:42;;;;;;;5.47;3.83;;;19.60;82.70;;;;;;5049555;28;20234;-69
2022/04/28 13:23:09;;;;;;;6.30;3.37;;;19.70;84.00;;;;;;5068147;28;20211;-68
2022/04/28 13:25:35;;;;;;;5.47;3.20;;;19.90;83.90;;;;;;5067832;28;20235;-68